Time;durP1;ratioP1;P1;durP2;ratioP2;P2;SDS_P1;SDS_P2;PMS_P1;PMS_P2;Temp;Humidity;BMP_temperature;BMP_pressure;BME280_temperature;BME280_humidity;BME280_pressure;Samples;Min_cycle;Max_cycle;Signal;HPM_P1;HPM_P2
2021/09/13 00:00:18;;;;;;;21.73;18.80;;;;;;;24.17;43.98;94388.19;4955693;28;99886;-64
2021/09/13 00:02:43;;;;;;;20.38;18.17;;;;;;;24.20;44.61;94390.09;4955559;28;99173;-63
2021/09/13 00:05:09;;;;;;;21.77;17.40;;;;;;;24.18;43.02;94395.25;4955597;28;96766;-65
2021/09/13 00:07:34;;;;;;;15.88;12.80;;;;;;;23.86;38.82;94384.91;4955699;28;96963;-64
2021/09/13 00:10:00;;;;;;;21.08;17.58;;;;;;;23.74;37.97;94391.84;4955276;28;99071;-67
2021/09/13 00:12:25;;;;;;;30.25;26.38;;;;;;;23.54;37.13;94381.63;4954483;28;98819;-66
2021/09/13 00:14:50;;;;;;;31.63;28.33;;;;;;;23.42;37.59;94391.31;4955762;28;96850;-70
2021/09/13 00:17:16;;;;;;;37.97;34.03;;;;;;;23.19;37.76;94386.63;4955913;28;97046;-71
2021/09/13 00:19:41;;;;;;;18.48;16.55;;;;;;;23.00;37.65;94385.38;4937654;28;100329;-67
2021/09/13 00:22:07;;;;;;;16.05;13.20;;;;;;;22.91;38.17;94395.00;4954473;28;99039;-65
2021/09/13 00:24:32;;;;;;;15.32;10.73;;;;;;;22.76;38.53;94394.44;4955606;28;96814;-65
2021/09/13 00:26:58;;;;;;;12.90;10.00;;;;;;;22.63;38.80;94393.50;4954663;28;97007;-66
2021/09/13 00:29:23;;;;;;;14.10;9.75;;;;;;;22.54;38.46;94396.00;4938004;28;97452;-65
2021/09/13 00:31:48;;;;;;;14.32;10.00;;;;;;;22.45;38.56;94400.06;4955528;28;99503;-65
2021/09/13 00:34:14;;;;;;;13.60;9.25;;;;;;;22.38;38.67;94408.41;4955221;28;98010;-66
2021/09/13 00:36:39;;;;;;;14.70;9.20;;;;;;;22.29;38.65;94413.66;4955376;28;97012;-66
2021/09/13 00:39:05;;;;;;;12.02;9.55;;;;;;;22.20;38.76;94409.44;4955391;28;99045;-66
2021/09/13 00:41:30;;;;;;;16.60;9.30;;;;;;;22.12;39.03;94402.50;4954012;28;98610;-64
2021/09/13 00:43:57;;;;;;;15.60;9.93;;;;;;;22.13;40.13;94403.28;4955763;28;96743;-67
2021/09/13 00:46:23;;;;;;;14.23;9.68;;;;;;;22.18;40.33;94398.09;4955543;28;97085;-68
2021/09/13 00:48:48;;;;;;;14.10;9.82;;;;;;;22.27;40.90;94400.31;4955053;28;101893;-69
2021/09/13 00:51:13;;;;;;;11.27;8.90;;;;;;;22.30;40.87;94395.94;4954796;28;99377;-69
2021/09/13 00:53:39;;;;;;;12.68;9.23;;;;;;;22.42;40.96;94397.34;4955036;28;96772;-65
2021/09/13 00:56:05;;;;;;;11.05;9.07;;;;;;;22.47;40.84;94389.44;4921470;28;96990;-69
2021/09/13 00:58:30;;;;;;;12.77;9.50;;;;;;;22.58;40.81;94396.72;4937434;28;99427;-68
2021/09/13 01:00:56;;;;;;;13.68;8.95;;;;;;;22.69;40.81;94396.53;4937558;28;99680;-56
2021/09/13 01:03:21;;;;;;;11.95;8.40;;;;;;;22.78;41.20;94400.31;4955727;28;97584;-55
2021/09/13 01:05:48;;;;;;;15.30;8.75;;;;;;;22.88;41.17;94406.06;4955486;28;96935;-57
2021/09/13 01:08:13;;;;;;;10.15;8.68;;;;;;;22.96;41.27;94393.72;4955008;28;98126;-56
2021/09/13 01:10:39;;;;;;;11.88;8.48;;;;;;;23.03;40.53;94396.34;4954366;28;99232;-61
2021/09/13 01:13:04;;;;;;;10.90;8.25;;;;;;;22.91;39.25;94402.47;4937816;28;96769;-60
2021/09/13 01:15:30;;;;;;;26.60;20.23;;;;;;;22.77;38.30;94404.25;4954776;28;96878;-64
2021/09/13 01:17:55;;;;;;;28.08;21.40;;;;;;;22.60;38.34;94410.84;4954233;28;99309;-62
2021/09/13 01:20:22;;;;;;;26.88;22.10;;;;;;;22.41;38.52;94410.31;4954230;28;106915;-69
2021/09/13 01:22:49;;;;;;;30.35;24.77;;;;;;;22.36;39.43;94408.03;4955223;28;97455;-65
2021/09/13 01:25:14;;;;;;;25.40;21.27;;;;;;;22.39;39.70;94407.22;4921153;28;97136;-66
2021/09/13 01:27:40;;;;;;;24.33;21.33;;;;;;;22.43;40.17;94407.94;4954425;28;99762;-62
2021/09/13 01:30:06;;;;;;;25.02;20.17;;;;;;;22.52;40.11;94409.41;4954158;28;97264;-65
2021/09/13 01:32:31;;;;;;;26.20;19.63;;;;;;;22.62;40.51;94402.97;4954478;28;96744;-64
2021/09/13 01:34:57;;;;;;;24.00;19.33;;;;;;;22.72;41.07;94413.00;4957387;28;96925;-63
2021/09/13 01:37:22;;;;;;;23.50;18.90;;;;;;;22.79;41.02;94412.88;4958141;28;104815;-63
2021/09/13 01:39:48;;;;;;;16.73;14.65;;;;;;;22.86;41.54;94411.19;4957562;28;99513;-64
2021/09/13 01:42:13;;;;;;;14.73;12.05;;;;;;;22.91;41.55;94403.25;4957958;28;96624;-64
2021/09/13 01:44:39;;;;;;;10.13;8.55;;;;;;;22.97;41.86;94411.78;4958239;28;96988;-66
2021/09/13 01:47:04;;;;;;;15.48;11.77;;;;;;;23.01;41.69;94411.72;4957561;28;99287;-64
2021/09/13 01:49:29;;;;;;;11.20;9.13;;;;;;;23.04;42.08;94417.19;4957550;28;99265;-64
2021/09/13 01:51:55;;;;;;;11.60;9.38;;;;;;;23.04;41.83;94422.69;4958027;28;96735;-63
2021/09/13 01:54:20;;;;;;;11.30;9.52;;;;;;;23.05;41.82;94424.25;4957858;28;97008;-65
2021/09/13 01:56:46;;;;;;;7.97;7.15;;;;;;;23.05;42.61;94423.44;4957599;28;99485;-64
2021/09/13 01:59:11;;;;;;;12.27;8.55;;;;;;;23.06;42.92;94420.28;4958146;28;102657;-65
2021/09/13 02:01:37;;;;;;;9.73;8.13;;;;;;;23.08;43.21;94422.59;4957657;28;96827;-64
2021/09/13 02:04:03;;;;;;;9.40;7.78;;;;;;;23.14;43.97;94420.16;4957782;28;96905;-66
2021/09/13 02:06:30;;;;;;;11.05;8.00;;;;;;;23.14;45.76;94411.91;4957379;28;99585;-64
2021/09/13 02:08:55;;;;;;;10.63;8.48;;;;;;;23.17;45.64;94420.09;4957378;28;100103;-65
2021/09/13 02:11:21;;;;;;;11.30;8.23;;;;;;;23.20;46.01;94426.75;4958260;28;97054;-65
2021/09/13 02:13:46;;;;;;;10.45;7.97;;;;;;;23.18;46.48;94415.38;4957651;28;97229;-65
2021/09/13 02:16:11;;;;;;;14.23;8.68;;;;;;;23.20;46.51;94415.72;4957136;28;102027;-67
2021/09/13 02:18:37;;;;;;;12.13;7.80;;;;;;;23.21;46.66;94420.03;4956640;28;99766;-66
2021/09/13 02:21:02;;;;;;;10.77;7.95;;;;;;;23.17;46.49;94413.81;4958037;28;96646;-66
2021/09/13 02:23:28;;;;;;;10.60;7.90;;;;;;;23.19;46.67;94428.72;4958521;28;96972;-64
2021/09/13 02:25:53;;;;;;;10.15;7.43;;;;;;;23.21;46.32;94420.03;4957256;28;99681;-65
2021/09/13 02:28:19;;;;;;;12.35;8.02;;;;;;;23.19;46.38;94423.19;4957377;28;100087;-64
2021/09/13 02:30:44;;;;;;;10.43;7.80;;;;;;;23.20;46.29;94430.25;4957463;28;96725;-66
2021/09/13 02:33:10;;;;;;;14.52;8.55;;;;;;;23.20;46.37;94432.25;4957837;28;96985;-65
2021/09/13 02:35:35;;;;;;;14.13;8.27;;;;;;;23.20;46.36;94426.75;4956697;28;99200;-64
2021/09/13 02:38:01;;;;;;;14.02;7.50;;;;;;;23.19;46.62;94436.97;4957228;28;99191;-65
2021/09/13 02:40:26;;;;;;;8.77;7.05;;;;;;;23.18;46.86;94427.16;4957687;28;96946;-65
2021/09/13 02:42:52;;;;;;;11.13;7.60;;;;;;;23.20;46.81;94432.25;4957592;28;96974;-64
2021/09/13 02:45:17;;;;;;;10.07;7.50;;;;;;;23.19;47.05;94430.69;4956668;28;99707;-66
2021/09/13 02:47:43;;;;;;;10.02;7.32;;;;;;;23.18;46.70;94427.16;4957489;28;99663;-67
2021/09/13 02:50:09;;;;;;;9.80;7.13;;;;;;;23.18;46.88;94429.13;4957663;28;96790;-64
2021/09/13 02:52:35;;;;;;;10.85;7.30;;;;;;;23.18;47.21;94437.41;4957667;28;96874;-65
2021/09/13 02:55:00;;;;;;;10.32;6.55;;;;;;;23.17;46.93;94430.34;4956816;28;99691;-64
2021/09/13 02:57:26;;;;;;;8.73;7.00;;;;;;;23.17;47.15;94436.63;4956938;28;99323;-65
2021/09/13 02:59:51;;;;;;;9.68;6.40;;;;;;;23.12;47.21;94423.31;4957531;28;97300;-64
2021/09/13 03:02:17;;;;;;;9.85;7.00;;;;;;;23.12;47.00;94428.06;4957436;28;96900;-65
2021/09/13 03:04:42;;;;;;;8.48;6.75;;;;;;;23.10;47.18;94432.03;4956954;28;99642;-64
2021/09/13 03:07:07;;;;;;;8.98;6.28;;;;;;;23.15;47.18;94443.75;4957045;28;99257;-64
2021/09/13 03:09:33;;;;;;;7.38;6.68;;;;;;;23.15;47.25;94443.75;4957393;28;96754;-65
2021/09/13 03:11:59;;;;;;;7.40;6.00;;;;;;;23.15;47.06;94443.75;4957460;28;96927;-65
2021/09/13 03:14:24;;;;;;;7.57;6.60;;;;;;;23.15;47.26;94438.25;4956870;28;100007;-66
2021/09/13 03:16:51;;;;;;;9.40;6.70;;;;;;;23.15;46.55;94444.53;4956795;28;98947;-65
2021/09/13 03:19:17;;;;;;;5.85;5.15;;;;;;;23.16;46.36;94440.56;4956624;28;97866;-66
2021/09/13 03:21:43;;;;;;;6.68;4.95;;;;;;;23.16;47.07;94439.81;4956869;28;96943;-65
2021/09/13 03:24:09;;;;;;;6.38;4.03;;;;;;;23.16;47.09;94446.06;4956469;28;99395;-66
2021/09/13 03:26:34;;;;;;;6.03;4.40;;;;;;;23.18;47.22;94442.91;4956355;28;99303;-64
2021/09/13 03:29:00;;;;;;;4.20;3.80;;;;;;;23.17;46.99;94453.16;4957100;28;96737;-64
2021/09/13 03:31:25;;;;;;;4.47;4.07;;;;;;;23.18;47.15;94438.16;4957184;28;97770;-64
2021/09/13 03:33:51;;;;;;;4.88;4.18;;;;;;;23.20;46.97;94443.28;4956579;28;97291;-64
2021/09/13 03:36:16;;;;;;;4.78;4.15;;;;;;;23.20;47.07;94451.53;4955959;28;106703;-64
2021/09/13 03:38:42;;;;;;;4.43;3.80;;;;;;;23.20;46.95;94446.03;4956865;28;97195;-64
2021/09/13 03:41:07;;;;;;;3.80;3.50;;;;;;;23.21;46.91;94450.34;4956735;28;96970;-66
2021/09/13 03:43:32;;;;;;;4.07;3.67;;;;;;;23.21;46.91;94447.59;4956016;28;99681;-64
2021/09/13 03:45:58;;;;;;;3.80;3.40;;;;;;;23.20;46.79;94446.78;4956420;28;99159;-66
2021/09/13 03:48:23;;;;;;;3.95;3.25;;;;;;;23.20;46.61;94452.31;4956730;28;96942;-65
2021/09/13 03:50:49;;;;;;;4.53;3.47;;;;;;;23.19;46.75;94449.97;4956755;28;96975;-65
2021/09/13 03:53:14;;;;;;;4.63;3.50;;;;;;;23.20;46.83;94462.56;4956184;28;98715;-65
2021/09/13 03:55:40;;;;;;;5.60;4.53;;;;;;;23.21;46.59;94464.13;4956029;28;99228;-65
2021/09/13 03:58:06;;;;;;;5.05;3.72;;;;;;;23.19;46.66;94461.00;4955494;28;96627;-66
2021/09/13 04:00:31;;;;;;;3.67;3.38;;;;;;;23.20;47.02;94459.81;4957050;28;97017;-66
2021/09/13 04:02:57;;;;;;;4.30;3.90;;;;;;;23.19;46.84;94461.00;4956149;28;99556;-66
2021/09/13 04:05:24;;;;;;;4.43;3.63;;;;;;;23.19;46.50;94467.28;4956246;28;99267;-65
2021/09/13 04:12:44;;;;;;;4.20;3.70;;;;;;;23.20;46.77;94473.56;4956115;28;97957;-65
2021/09/13 04:15:10;;;;;;;4.00;3.60;;;;;;;23.20;46.83;94474.34;4955992;28;99596;-66
2021/09/13 04:17:35;;;;;;;3.40;3.10;;;;;;;23.20;46.87;94473.56;4956298;28;97166;-66
2021/09/13 04:20:01;;;;;;;3.88;3.55;;;;;;;23.19;46.73;94475.53;4956103;28;96944;-64
2021/09/13 04:22:26;;;;;;;4.55;4.15;;;;;;;23.20;46.79;94479.09;4938164;28;99570;-65
2021/09/13 04:24:52;;;;;;;4.40;3.80;;;;;;;23.21;46.73;94477.91;4955980;28;99364;-65
2021/09/13 04:27:17;;;;;;;4.93;4.43;;;;;;;23.21;46.87;94478.66;4956106;28;97234;-65
2021/09/13 04:29:43;;;;;;;4.22;3.67;;;;;;;23.22;46.65;94482.19;4956036;28;96970;-65
2021/09/13 04:32:08;;;;;;;4.57;3.92;;;;;;;23.21;46.67;94478.66;4955271;28;99385;-65
2021/09/13 04:34:34;;;;;;;5.03;4.07;;;;;;;23.23;46.57;94478.28;4955612;28;99704;-65
2021/09/13 04:36:59;;;;;;;5.95;4.10;;;;;;;23.21;46.66;94475.13;4955957;28;96746;-66
2021/09/13 04:39:25;;;;;;;5.50;4.53;;;;;;;23.22;46.18;94476.69;4955989;28;97380;-66
2021/09/13 04:41:50;;;;;;;6.30;4.53;;;;;;;23.17;46.67;94466.91;4955457;28;99106;-65
2021/09/13 04:44:15;;;;;;;5.30;4.47;;;;;;;23.21;46.64;94472.38;4955204;28;99663;-64
2021/09/13 04:46:41;;;;;;;5.05;4.55;;;;;;;23.20;46.35;94477.09;4956145;28;96788;-64
2021/09/13 04:49:06;;;;;;;5.00;4.40;;;;;;;23.20;46.85;94479.09;4956500;28;96942;-66
2021/09/13 04:51:32;;;;;;;5.32;4.68;;;;;;;23.17;46.53;94475.19;4955238;28;102960;-65
2021/09/13 04:53:59;;;;;;;5.00;4.50;;;;;;;23.17;46.49;94480.69;4955189;28;99586;-65
2021/09/13 04:56:25;;;;;;;4.82;4.40;;;;;;;23.21;46.54;94483.41;4954908;28;97032;-65
2021/09/13 04:58:51;;;;;;;5.00;4.50;;;;;;;23.21;46.26;94489.69;4954712;28;96927;-67
2021/09/13 05:01:17;;;;;;;8.00;4.95;;;;;;;23.22;46.41;94498.72;4955079;28;100255;-64
2021/09/13 05:03:42;;;;;;;5.80;4.95;;;;;;;23.22;46.57;94494.00;4955162;28;99312;-65
2021/09/13 05:06:07;;;;;;;5.30;4.68;;;;;;;23.23;46.42;94503.06;4954957;28;96967;-65
2021/09/13 05:08:33;;;;;;;6.20;4.95;;;;;;;23.23;46.67;94500.31;4955222;28;96939;-64
2021/09/13 05:10:58;;;;;;;6.60;5.50;;;;;;;23.23;46.52;94506.59;4954331;28;97560;-69
2021/09/13 05:13:24;;;;;;;8.25;5.40;;;;;;;23.28;46.26;94510.84;4954968;28;98951;-66
2021/09/13 05:15:49;;;;;;;6.93;5.82;;;;;;;23.24;46.17;94512.91;4954768;28;96860;-67
2021/09/13 05:18:15;;;;;;;7.75;5.78;;;;;;;23.24;46.61;94510.16;4953609;28;97018;-65
2021/09/13 05:20:40;;;;;;;7.40;5.75;;;;;;;23.23;46.81;94505.84;4954480;28;100583;-65
2021/09/13 05:23:06;;;;;;;7.68;6.13;;;;;;;23.22;47.53;94509.75;4955015;28;99370;-67
2021/09/13 05:25:31;;;;;;;8.63;6.10;;;;;;;23.22;46.97;94515.25;4955121;28;97127;-64
2021/09/13 05:27:56;;;;;;;7.20;6.32;;;;;;;23.21;47.20;94519.22;4955261;28;96945;-64
2021/09/13 05:30:22;;;;;;;11.80;6.68;;;;;;;23.23;46.25;94514.09;4954298;28;99785;-66
2021/09/13 05:32:47;;;;;;;12.15;7.13;;;;;;;23.24;46.35;94518.41;4937219;28;99714;-67
2021/09/13 05:35:13;;;;;;;10.88;6.15;;;;;;;23.33;46.44;94520.59;4954793;28;96968;-66
2021/09/13 05:37:38;;;;;;;12.90;6.43;;;;;;;23.32;46.63;94517.06;4955628;28;96945;-72
2021/09/13 05:40:06;;;;;;;12.70;6.93;;;;;;;23.22;45.78;94515.25;4954634;28;98591;-63
2021/09/13 05:42:32;;;;;;;9.45;7.03;;;;;;;23.17;46.33;94513.00;4954855;28;99834;-65
2021/09/13 05:44:57;;;;;;;20.20;10.80;;;;;;;23.18;47.07;94509.03;4955036;28;96746;-64
2021/09/13 05:47:22;;;;;;;31.77;16.73;;;;;;;23.31;47.42;94512.75;4953278;28;96992;-64
2021/09/13 05:49:48;;;;;;;35.72;20.33;;;;;;;23.35;46.50;94518.22;4935156;28;98403;-63
2021/09/13 05:52:13;;;;;;;42.35;23.70;;;;;;;23.30;47.06;94516.69;4935079;28;98417;-65
2021/09/13 05:54:39;;;;;;;35.63;21.50;;;;;;;23.34;47.17;94513.91;4948615;28;96803;-66
2021/09/13 05:57:04;;;;;;;33.78;21.50;;;;;;;23.31;47.46;94511.97;4954058;28;97244;-66
2021/09/13 05:59:30;;;;;;;41.00;21.48;;;;;;;23.37;47.59;94521.31;4953946;28;99652;-70
2021/09/13 06:01:55;;;;;;;32.25;19.40;;;;;;;23.38;47.54;94518.13;4954057;28;97638;-67
2021/09/13 06:04:20;;;;;;;33.22;19.75;;;;;;;23.41;47.18;94516.53;4954104;28;96846;-62
2021/09/13 06:06:46;;;;;;;33.33;19.15;;;;;;;23.43;47.26;94513.34;4937108;28;97053;-65
2021/09/13 06:09:11;;;;;;;31.85;19.77;;;;;;;23.46;47.33;94518.00;4952266;28;99397;-67
2021/09/13 06:11:37;;;;;;;29.65;18.30;;;;;;;23.47;47.27;94519.56;4953760;28;99566;-66
2021/09/13 06:14:03;;;;;;;29.65;20.00;;;;;;;23.50;47.24;94519.53;4954501;28;96856;-67
2021/09/13 06:16:29;;;;;;;28.77;18.33;;;;;;;23.50;47.00;94510.47;4935781;28;97035;-68
2021/09/13 06:18:54;;;;;;;28.60;18.65;;;;;;;23.53;47.02;94517.88;4953688;28;99057;-68
2021/09/13 06:21:20;;;;;;;31.08;17.98;;;;;;;23.55;47.12;94521.00;4955881;28;97751;-61
2021/09/13 06:23:45;;;;;;;25.15;18.02;;;;;;;23.56;47.28;94519.81;4957019;28;96728;-64
2021/09/13 06:26:12;;;;;;;34.38;19.77;;;;;;;23.54;47.75;94522.19;4957144;28;96935;-63
2021/09/13 06:28:37;;;;;;;34.88;19.33;;;;;;;23.46;47.57;94502.28;4956509;28;98534;-63
2021/09/13 06:31:03;;;;;;;29.10;17.85;;;;;;;23.57;47.04;94504.81;4957098;28;98887;-61
2021/09/13 06:33:29;;;;;;;33.58;19.88;;;;;;;23.54;47.02;94498.19;4957292;28;96681;-61
2021/09/13 06:35:55;;;;;;;37.58;20.77;;;;;;;23.53;46.71;94506.84;4956775;28;96960;-57
2021/09/13 06:38:20;;;;;;;36.70;20.35;;;;;;;23.52;46.56;94527.34;4956501;28;100399;-62
2021/09/13 06:40:46;;;;;;;34.40;23.13;;;;;;;23.50;46.37;94524.25;4954987;28;101275;-62
2021/09/13 06:43:14;;;;;;;35.00;24.75;;;;;;;23.50;45.96;94529.75;4939818;28;96800;-62
2021/09/13 06:45:44;;;;;;;32.13;20.05;;;;;;;23.51;46.33;94534.06;4957512;28;96924;-62
2021/09/13 06:48:10;;;;;;;27.92;19.85;;;;;;;23.52;45.97;94524.59;4956791;28;100906;-62
2021/09/13 06:50:36;;;;;;;27.90;20.33;;;;;;;23.51;46.24;94529.34;4957221;28;99360;-62
2021/09/13 06:53:01;;;;;;;37.22;25.95;;;;;;;23.37;46.21;94511.06;4957206;28;96711;-62
2021/09/13 06:55:27;;;;;;;24.85;17.27;;;;;;;23.49;46.12;94539.22;4957286;28;96859;-63
2021/09/13 06:57:52;;;;;;;27.73;19.13;;;;;;;23.50;46.28;94532.50;4938884;28;99480;-64
2021/09/13 07:00:18;;;;;;;28.73;20.50;;;;;;;23.47;46.64;94530.59;4939243;28;99226;-62
2021/09/13 07:02:44;;;;;;;21.38;14.60;;;;;;;23.47;46.24;94530.59;4957384;28;96687;-63
2021/09/13 07:05:10;;;;;;;22.58;14.70;;;;;;;23.46;46.53;94529.03;4957186;28;96970;-61
2021/09/13 07:07:36;;;;;;;23.17;16.75;;;;;;;23.45;46.36;94533.00;4956705;28;97619;-61
2021/09/13 07:10:03;;;;;;;27.77;19.23;;;;;;;23.43;46.02;94540.91;4956374;28;97366;-61
2021/09/13 07:12:28;;;;;;;20.58;14.73;;;;;;;23.43;46.08;94535.38;4956807;28;96789;-62
2021/09/13 07:14:54;;;;;;;18.45;13.18;;;;;;;23.43;45.98;94540.91;4956805;28;96916;-61
2021/09/13 07:17:19;;;;;;;23.90;15.63;;;;;;;23.43;46.20;94540.91;4956682;28;99251;-60
2021/09/13 07:19:47;;;;;;;21.75;14.85;;;;;;;23.42;46.37;94540.13;4956090;28;99128;-60
2021/09/13 07:22:13;;;;;;;25.63;17.52;;;;;;;23.42;46.51;94539.34;4956587;28;96713;-65
2021/09/13 07:24:43;;;;;;;22.92;16.85;;;;;;;23.40;46.88;94531.50;4956946;28;97001;-64
2021/09/13 07:27:08;;;;;;;21.88;15.38;;;;;;;23.39;46.83;94535.47;4956181;28;98450;-62
2021/09/13 07:29:34;;;;;;;21.17;15.50;;;;;;;23.30;46.69;94522.22;4956398;28;99520;-62
2021/09/13 07:32:02;;;;;;;20.42;14.27;;;;;;;23.38;47.09;94536.66;4956545;28;96794;-63
2021/09/13 07:34:28;;;;;;;20.13;13.95;;;;;;;23.36;46.84;94534.31;4956130;28;96945;-66
2021/09/13 07:36:55;;;;;;;19.77;14.13;;;;;;;23.36;46.96;94536.31;4955876;28;100040;-62
2021/09/13 07:39:21;;;;;;;19.45;14.20;;;;;;;23.35;46.89;94530.00;4956148;28;99177;-62
2021/09/13 07:41:47;;;;;;;20.75;14.10;;;;;;;23.35;46.76;94535.50;4956663;28;97325;-60
2021/09/13 07:44:12;;;;;;;19.42;13.65;;;;;;;23.34;46.49;94539.47;4956486;28;97024;-61
2021/09/13 07:46:38;;;;;;;22.05;14.30;;;;;;;23.32;46.21;94539.09;4955954;28;99527;-64
2021/09/13 07:49:03;;;;;;;19.80;13.60;;;;;;;23.33;46.60;94537.91;4956326;28;96759;-61
2021/09/13 07:51:29;;;;;;;19.70;14.43;;;;;;;23.33;46.50;94542.66;4956391;28;96738;-61
2021/09/13 07:53:54;;;;;;;19.33;13.88;;;;;;;23.31;46.50;94543.06;4956504;28;96973;-61
2021/09/13 07:56:20;;;;;;;19.33;12.65;;;;;;;23.28;46.75;94530.13;4955718;28;97990;-64
2021/09/13 07:58:45;;;;;;;20.35;13.50;;;;;;;23.29;46.68;94537.19;4955762;28;99363;-60
2021/09/13 08:01:10;;;;;;;20.00;14.30;;;;;;;23.32;46.71;94541.84;4956706;28;96724;-62
2021/09/13 08:03:36;;;;;;;18.42;13.70;;;;;;;23.32;46.99;94543.84;4956475;28;96965;-62
2021/09/13 08:06:01;;;;;;;18.63;13.30;;;;;;;23.32;46.37;94541.09;4955609;28;98933;-61
2021/09/13 08:08:27;;;;;;;17.13;12.55;;;;;;;23.30;46.93;94547.00;4955664;28;99167;-61
2021/09/13 08:10:52;;;;;;;17.42;12.50;;;;;;;23.28;46.49;94532.88;4956017;28;96987;-61
2021/09/13 08:13:18;;;;;;;19.70;13.15;;;;;;;23.31;46.45;94534.78;4956206;28;97430;-61
2021/09/13 08:15:43;;;;;;;17.83;12.63;;;;;;;23.31;46.63;94540.31;4955597;28;99379;-63
2021/09/13 08:18:09;;;;;;;19.25;13.27;;;;;;;23.29;46.41;94537.19;4955269;28;99025;-61
2021/09/13 08:20:34;;;;;;;15.40;12.05;;;;;;;23.29;46.75;94534.44;4956219;28;96679;-60
2021/09/13 08:22:59;;;;;;;18.67;12.38;;;;;;;23.31;46.56;94540.31;4956252;28;96924;-61
2021/09/13 08:25:25;;;;;;;17.65;12.07;;;;;;;23.31;46.21;94531.28;4955441;28;98042;-60
2021/09/13 08:27:50;;;;;;;17.27;12.02;;;;;;;23.27;46.28;94528.56;4955570;28;99185;-61
2021/09/13 08:30:16;;;;;;;16.50;12.20;;;;;;;23.31;46.28;94528.53;4955790;28;96772;-62
2021/09/13 08:32:41;;;;;;;16.67;11.93;;;;;;;23.31;46.10;94531.28;4955834;28;96796;-63
2021/09/13 08:35:07;;;;;;;16.63;12.45;;;;;;;23.32;46.02;94530.06;4954190;28;99320;-63
2021/09/13 08:37:32;;;;;;;16.85;11.75;;;;;;;23.31;46.09;94532.03;4955264;28;99605;-63
2021/09/13 08:39:59;;;;;;;17.90;12.38;;;;;;;23.33;46.19;94531.63;4955631;28;96843;-62
2021/09/13 08:42:26;;;;;;;14.93;11.00;;;;;;;23.33;46.22;94532.41;4955535;28;97242;-61
2021/09/13 08:44:53;;;;;;;18.17;12.45;;;;;;;23.35;45.69;94535.50;4954719;28;99497;-61
2021/09/13 08:47:24;;;;;;;16.75;11.77;;;;;;;23.30;46.06;94515.94;4921681;28;99253;-63
2021/09/13 08:49:54;;;;;;;15.43;12.05;;;;;;;23.36;46.01;94526.03;4939259;28;96778;-60
2021/09/13 08:52:20;;;;;;;15.45;11.73;;;;;;;23.36;46.44;94520.53;4955800;28;96926;-61
2021/09/13 08:54:45;;;;;;;15.88;10.95;;;;;;;23.37;46.94;94516.59;4955040;28;99365;-61
2021/09/13 08:57:11;;;;;;;16.48;11.55;;;;;;;23.37;46.87;94516.59;4954914;28;98987;-63
2021/09/13 08:59:37;;;;;;;16.10;11.43;;;;;;;23.40;46.93;94520.50;4955231;28;96792;-63
2021/09/13 09:02:03;;;;;;;15.40;11.27;;;;;;;23.39;46.89;94519.69;4955300;28;96925;-61
2021/09/13 09:04:29;;;;;;;13.80;10.55;;;;;;;23.41;47.16;94518.50;4954792;28;99694;-60
2021/09/13 09:06:54;;;;;;;16.23;11.27;;;;;;;23.43;46.83;94513.34;4955189;28;97904;-61
2021/09/13 09:09:21;;;;;;;14.52;11.00;;;;;;;23.44;47.09;94512.13;4955128;28;96833;-61
2021/09/13 09:11:50;;;;;;;15.50;10.73;;;;;;;23.44;46.63;94517.66;4955504;28;98010;-61
2021/09/13 09:14:26;;;;;;;13.95;10.70;;;;;;;23.46;46.78;94507.00;4954636;28;99923;-62
2021/09/13 09:17:03;;;;;;;16.13;11.02;;;;;;;23.45;46.75;94511.75;4955399;28;99266;-62
2021/09/13 09:19:28;;;;;;;17.15;10.75;;;;;;;23.47;46.95;94512.09;4955161;28;96815;-60
2021/09/13 09:21:54;;;;;;;15.73;11.05;;;;;;;23.48;46.86;94507.34;4955214;28;96928;-61
2021/09/13 09:24:19;;;;;;;16.73;11.05;;;;;;;23.47;46.21;94503.03;4954482;28;99801;-62
2021/09/13 09:27:02;;;;;;;14.82;10.50;;;;;;;23.48;46.83;94499.06;4937368;28;99819;-60
2021/09/13 09:29:28;;;;;;;14.80;10.57;;;;;;;23.48;46.75;94497.13;4955143;28;96756;-60
2021/09/13 09:31:56;;;;;;;13.10;10.02;;;;;;;23.49;46.43;94495.13;4955254;28;96956;-62
2021/09/13 09:34:24;;;;;;;13.50;10.40;;;;;;;23.45;46.48;94492.44;4954451;28;99576;-62
2021/09/13 09:37:03;;;;;;;14.55;10.68;;;;;;;23.50;46.31;94494.72;4934654;28;99588;-60
2021/09/13 09:39:30;;;;;;;14.20;9.85;;;;;;;23.50;46.31;94491.16;4935802;28;96720;-60
2021/09/13 09:41:56;;;;;;;13.02;10.00;;;;;;;23.51;46.36;94498.22;4936161;28;96962;-62
2021/09/13 09:44:22;;;;;;;14.73;10.32;;;;;;;23.52;46.39;94491.53;4934833;28;99581;-59
2021/09/13 09:46:47;;;;;;;14.85;10.90;;;;;;;23.52;46.21;94488.75;4934905;28;99474;-60
2021/09/13 09:49:17;;;;;;;14.15;10.10;;;;;;;23.53;46.34;94484.81;4935063;28;96781;-59
2021/09/13 09:51:45;;;;;;;13.73;10.38;;;;;;;23.52;46.16;94489.56;4935374;28;97272;-60
2021/09/13 09:54:29;;;;;;;13.15;9.95;;;;;;;23.53;46.01;94485.59;4934582;28;99374;-59
2021/09/13 09:57:05;;;;;;;14.18;9.88;;;;;;;23.54;46.19;94491.88;4938017;28;99435;-60
2021/09/13 09:59:34;;;;;;;13.70;9.90;;;;;;;23.54;46.43;94491.88;4938668;28;97011;-60
2021/09/13 10:02:00;;;;;;;12.68;9.85;;;;;;;23.55;46.18;94487.91;4938940;28;96965;-59
2021/09/13 10:04:26;;;;;;;14.40;9.40;;;;;;;23.52;46.04;94474.97;4938260;28;99310;-62
2021/09/13 10:06:54;;;;;;;14.02;9.60;;;;;;;23.56;46.13;94483.97;4938819;28;99671;-60
2021/09/13 10:09:20;;;;;;;12.40;9.15;;;;;;;23.57;45.88;94480.00;4938916;28;96796;-61
2021/09/13 10:11:46;;;;;;;13.68;9.27;;;;;;;23.57;46.06;94474.50;4938464;28;96960;-59
2021/09/13 10:14:13;;;;;;;13.30;9.65;;;;;;;23.58;45.83;94476.06;4937439;28;99600;-62
2021/09/13 10:16:40;;;;;;;13.23;9.50;;;;;;;23.59;45.66;94472.09;4938074;28;99206;-60
2021/09/13 10:19:06;;;;;;;11.65;8.98;;;;;;;23.59;45.32;94477.59;4938547;28;96722;-60
2021/09/13 10:21:32;;;;;;;12.63;9.20;;;;;;;23.61;45.48;94468.91;4938746;28;96999;-60
2021/09/13 10:23:57;;;;;;;13.48;9.18;;;;;;;23.60;45.45;94468.13;4938212;28;99535;-60
2021/09/13 10:26:23;;;;;;;9.95;8.10;;;;;;;23.61;45.24;94469.69;4920427;28;99272;-60
2021/09/13 10:29:00;;;;;;;13.10;9.30;;;;;;;23.64;45.68;94462.53;4905134;28;96846;-59
2021/09/13 10:31:41;;;;;;;11.23;8.77;;;;;;;23.65;45.31;94456.63;4938902;28;96955;-59
2021/09/13 10:34:31;;;;;;;13.43;9.35;;;;;;;23.65;45.27;94459.38;4937921;28;98994;-62
2021/09/13 10:37:05;;;;;;;10.38;8.65;;;;;;;23.65;45.02;94453.84;4937616;28;99889;-60
2021/09/13 10:39:49;;;;;;;9.88;8.32;;;;;;;23.66;45.47;94449.09;4937884;28;96777;-59
2021/09/13 10:42:46;;;;;;;11.88;8.48;;;;;;;23.63;45.51;94449.97;4938224;28;96992;-60
2021/09/13 10:45:33;;;;;;;10.52;8.85;;;;;;;23.66;45.29;94455.41;4937733;28;99957;-60
2021/09/13 10:47:58;;;;;;;11.00;8.82;;;;;;;23.65;45.70;94459.38;4937834;28;99464;-60
2021/09/13 10:50:40;;;;;;;12.38;9.05;;;;;;;23.63;45.28;94448.00;4938214;28;96825;-59
2021/09/13 10:53:17;;;;;;;12.45;9.07;;;;;;;23.68;45.77;94455.78;4922610;28;96774;-60
2021/09/13 10:55:49;;;;;;;10.63;8.07;;;;;;;23.67;45.26;94462.50;4937803;28;98380;-62
2021/09/13 10:58:18;;;;;;;11.63;8.07;;;;;;;23.66;45.26;94444.38;4937718;28;99290;-61
2021/09/13 11:00:43;;;;;;;9.60;7.82;;;;;;;23.74;45.31;94449.75;4938120;28;96665;-61
2021/09/13 11:06:10;;;;;;;12.60;9.60;;;;;;;23.80;44.96;94434.28;4933892;28;98265;-61
2021/09/13 11:08:42;;;;;;;13.90;10.30;;;;;;;23.93;42.09;94439.91;4937306;28;99748;-59
2021/09/13 11:11:08;;;;;;;27.30;24.35;;;;;;;23.95;41.71;94427.22;4937889;28;96718;-59
2021/09/13 11:13:34;;;;;;;28.13;21.95;;;;;;;24.01;40.90;94435.81;4937564;28;97007;-61
2021/09/13 11:15:59;;;;;;;22.42;18.10;;;;;;;24.06;40.22;94429.03;4936984;28;99674;-60
2021/09/13 11:18:38;;;;;;;21.83;14.85;;;;;;;24.15;40.38;94426.47;4936853;28;99810;-59
2021/09/13 11:21:22;;;;;;;39.67;19.15;;;;;;;24.24;42.95;94432.16;4937336;28;96929;-55
2021/09/13 11:23:52;;;;;;;26.58;14.18;;;;;;;24.18;42.55;94409.03;4937613;28;97055;-57
2021/09/13 11:26:19;;;;;;;22.45;11.63;;;;;;;24.32;41.22;94426.50;4936534;28;99354;-59